sensor_id;sensor_type;location;lat;lon;timestamp;P1;durP1;ratioP1;P2;durP2;ratioP2
32138;SDS011;18644;48.700;9.210;2023-03-15T00:01:11;1.50;;;1.40;;
32138;SDS011;18644;48.700;9.210;2023-03-15T00:03:40;4.72;;;2.13;;
32138;SDS011;18644;48.700;9.210;2023-03-15T00:06:08;2.05;;;1.60;;
32138;SDS011;18644;48.700;9.210;2023-03-15T00:08:37;2.80;;;1.80;;
32138;SDS011;18644;48.700;9.210;2023-03-15T00:11:04;1.50;;;1.27;;
32138;SDS011;18644;48.700;9.210;2023-03-15T00:13:32;1.70;;;1.35;;
32138;SDS011;18644;48.700;9.210;2023-03-15T00:16:00;1.58;;;1.42;;
32138;SDS011;18644;48.700;9.210;2023-03-15T00:18:28;1.67;;;1.45;;
32138;SDS011;18644;48.700;9.210;2023-03-15T00:20:55;2.30;;;1.50;;
32138;SDS011;18644;48.700;9.210;2023-03-15T00:23:22;4.20;;;1.92;;
32138;SDS011;18644;48.700;9.210;2023-03-15T00:25:51;2.42;;;1.55;;
32138;SDS011;18644;48.700;9.210;2023-03-15T00:28:19;2.45;;;1.80;;
32138;SDS011;18644;48.700;9.210;2023-03-15T00:30:46;3.72;;;2.17;;
32138;SDS011;18644;48.700;9.210;2023-03-15T00:33:14;3.53;;;2.10;;
32138;SDS011;18644;48.700;9.210;2023-03-15T00:35:42;3.97;;;2.05;;
32138;SDS011;18644;48.700;9.210;2023-03-15T00:38:10;3.28;;;1.88;;
32138;SDS011;18644;48.700;9.210;2023-03-15T00:40:38;2.65;;;1.80;;
32138;SDS011;18644;48.700;9.210;2023-03-15T00:43:07;1.55;;;1.45;;
32138;SDS011;18644;48.700;9.210;2023-03-15T00:45:33;2.55;;;1.75;;
32138;SDS011;18644;48.700;9.210;2023-03-15T00:48:01;3.95;;;2.10;;
32138;SDS011;18644;48.700;9.210;2023-03-15T00:50:28;5.03;;;1.77;;
32138;SDS011;18644;48.700;9.210;2023-03-15T00:52:55;3.50;;;2.17;;
32138;SDS011;18644;48.700;9.210;2023-03-15T00:55:21;7.40;;;2.58;;
32138;SDS011;18644;48.700;9.210;2023-03-15T00:57:48;2.10;;;1.83;;
32138;SDS011;18644;48.700;9.210;2023-03-15T01:00:18;5.38;;;2.33;;
32138;SDS011;18644;48.700;9.210;2023-03-15T01:02:48;5.90;;;2.53;;
32138;SDS011;18644;48.700;9.210;2023-03-15T01:05:16;3.22;;;2.17;;
32138;SDS011;18644;48.700;9.210;2023-03-15T01:07:43;4.18;;;2.33;;
32138;SDS011;18644;48.700;9.210;2023-03-15T01:10:10;3.20;;;1.95;;
32138;SDS011;18644;48.700;9.210;2023-03-15T01:12:39;4.95;;;1.90;;
32138;SDS011;18644;48.700;9.210;2023-03-15T01:15:07;2.40;;;1.90;;
32138;SDS011;18644;48.700;9.210;2023-03-15T01:17:38;3.47;;;2.00;;
32138;SDS011;18644;48.700;9.210;2023-03-15T01:20:06;2.85;;;2.03;;
32138;SDS011;18644;48.700;9.210;2023-03-15T01:22:36;5.22;;;1.88;;
32138;SDS011;18644;48.700;9.210;2023-03-15T01:25:04;3.55;;;1.92;;
32138;SDS011;18644;48.700;9.210;2023-03-15T01:27:33;5.10;;;2.55;;
32138;SDS011;18644;48.700;9.210;2023-03-15T01:30:03;4.18;;;2.00;;
32138;SDS011;18644;48.700;9.210;2023-03-15T01:32:32;2.88;;;2.28;;
32138;SDS011;18644;48.700;9.210;2023-03-15T01:35:01;2.83;;;1.70;;
32138;SDS011;18644;48.700;9.210;2023-03-15T01:37:29;3.83;;;1.98;;
32138;SDS011;18644;48.700;9.210;2023-03-15T01:39:58;7.18;;;2.75;;
32138;SDS011;18644;48.700;9.210;2023-03-15T01:42:25;3.70;;;1.88;;
32138;SDS011;18644;48.700;9.210;2023-03-15T01:44:54;2.15;;;1.75;;
32138;SDS011;18644;48.700;9.210;2023-03-15T01:47:23;6.10;;;1.50;;
32138;SDS011;18644;48.700;9.210;2023-03-15T01:49:53;3.83;;;1.77;;
32138;SDS011;18644;48.700;9.210;2023-03-15T01:52:27;2.35;;;1.48;;
32138;SDS011;18644;48.700;9.210;2023-03-15T01:54:59;4.60;;;1.70;;
32138;SDS011;18644;48.700;9.210;2023-03-15T01:57:31;4.80;;;2.10;;
32138;SDS011;18644;48.700;9.210;2023-03-15T02:00:03;2.75;;;1.52;;
32138;SDS011;18644;48.700;9.210;2023-03-15T02:02:36;4.88;;;1.70;;
32138;SDS011;18644;48.700;9.210;2023-03-15T02:05:10;2.08;;;1.20;;
32138;SDS011;18644;48.700;9.210;2023-03-15T02:07:44;2.42;;;1.42;;
32138;SDS011;18644;48.700;9.210;2023-03-15T02:10:15;3.33;;;1.50;;
32138;SDS011;18644;48.700;9.210;2023-03-15T02:12:46;2.47;;;1.27;;
32138;SDS011;18644;48.700;9.210;2023-03-15T02:15:16;2.17;;;1.10;;
32138;SDS011;18644;48.700;9.210;2023-03-15T02:17:45;3.42;;;1.50;;
32138;SDS011;18644;48.700;9.210;2023-03-15T02:20:19;1.88;;;1.30;;
32138;SDS011;18644;48.700;9.210;2023-03-15T02:22:57;4.22;;;1.50;;
32138;SDS011;18644;48.700;9.210;2023-03-15T02:25:30;3.60;;;1.25;;
32138;SDS011;18644;48.700;9.210;2023-03-15T02:28:08;2.85;;;1.25;;
32138;SDS011;18644;48.700;9.210;2023-03-15T02:30:38;1.23;;;1.13;;
32138;SDS011;18644;48.700;9.210;2023-03-15T02:33:07;4.65;;;1.52;;
32138;SDS011;18644;48.700;9.210;2023-03-15T02:35:41;1.50;;;0.98;;
32138;SDS011;18644;48.700;9.210;2023-03-15T02:38:08;1.20;;;1.10;;
32138;SDS011;18644;48.700;9.210;2023-03-15T02:40:35;2.22;;;1.35;;
32138;SDS011;18644;48.700;9.210;2023-03-15T02:43:03;2.22;;;1.10;;
32138;SDS011;18644;48.700;9.210;2023-03-15T02:45:34;2.47;;;1.17;;
32138;SDS011;18644;48.700;9.210;2023-03-15T02:48:02;1.95;;;1.05;;
32138;SDS011;18644;48.700;9.210;2023-03-15T02:50:31;1.75;;;1.00;;
32138;SDS011;18644;48.700;9.210;2023-03-15T02:52:58;1.80;;;1.10;;
32138;SDS011;18644;48.700;9.210;2023-03-15T02:55:27;2.05;;;1.30;;
32138;SDS011;18644;48.700;9.210;2023-03-15T02:57:53;3.28;;;1.20;;
32138;SDS011;18644;48.700;9.210;2023-03-15T03:00:20;2.75;;;1.20;;
32138;SDS011;18644;48.700;9.210;2023-03-15T03:02:49;1.95;;;1.20;;
32138;SDS011;18644;48.700;9.210;2023-03-15T03:05:17;2.10;;;1.23;;
32138;SDS011;18644;48.700;9.210;2023-03-15T03:07:44;2.40;;;1.10;;
32138;SDS011;18644;48.700;9.210;2023-03-15T03:10:13;1.75;;;1.10;;
32138;SDS011;18644;48.700;9.210;2023-03-15T03:12:43;3.28;;;0.90;;
32138;SDS011;18644;48.700;9.210;2023-03-15T03:15:10;3.95;;;1.33;;
32138;SDS011;18644;48.700;9.210;2023-03-15T03:17:38;3.40;;;1.00;;
32138;SDS011;18644;48.700;9.210;2023-03-15T03:20:07;2.03;;;1.15;;
32138;SDS011;18644;48.700;9.210;2023-03-15T03:22:37;1.17;;;1.05;;
32138;SDS011;18644;48.700;9.210;2023-03-15T03:25:06;2.95;;;1.25;;
32138;SDS011;18644;48.700;9.210;2023-03-15T03:27:34;2.30;;;1.20;;
32138;SDS011;18644;48.700;9.210;2023-03-15T03:30:02;3.17;;;1.23;;
32138;SDS011;18644;48.700;9.210;2023-03-15T03:32:29;4.60;;;1.50;;
32138;SDS011;18644;48.700;9.210;2023-03-15T03:34:56;4.38;;;1.58;;
32138;SDS011;18644;48.700;9.210;2023-03-15T03:37:24;2.85;;;1.20;;
32138;SDS011;18644;48.700;9.210;2023-03-15T03:39:51;6.93;;;2.08;;
32138;SDS011;18644;48.700;9.210;2023-03-15T03:42:18;2.25;;;1.27;;
32138;SDS011;18644;48.700;9.210;2023-03-15T03:44:46;3.45;;;1.30;;
32138;SDS011;18644;48.700;9.210;2023-03-15T03:47:14;2.92;;;1.25;;
32138;SDS011;18644;48.700;9.210;2023-03-15T03:49:41;3.20;;;1.30;;
32138;SDS011;18644;48.700;9.210;2023-03-15T03:52:08;2.42;;;1.20;;
32138;SDS011;18644;48.700;9.210;2023-03-15T03:54:36;3.50;;;1.85;;
32138;SDS011;18644;48.700;9.210;2023-03-15T03:57:04;3.97;;;1.30;;
32138;SDS011;18644;48.700;9.210;2023-03-15T03:59:31;3.75;;;1.20;;
32138;SDS011;18644;48.700;9.210;2023-03-15T04:02:00;3.50;;;1.30;;
32138;SDS011;18644;48.700;9.210;2023-03-15T04:04:27;3.08;;;1.17;;
32138;SDS011;18644;48.700;9.210;2023-03-15T04:06:54;6.15;;;1.55;;
32138;SDS011;18644;48.700;9.210;2023-03-15T04:09:21;1.80;;;1.05;;
32138;SDS011;18644;48.700;9.210;2023-03-15T04:11:52;3.30;;;1.10;;
32138;SDS011;18644;48.700;9.210;2023-03-15T04:14:18;2.60;;;1.20;;
32138;SDS011;18644;48.700;9.210;2023-03-15T04:16:45;3.97;;;1.45;;
32138;SDS011;18644;48.700;9.210;2023-03-15T04:19:12;3.33;;;1.60;;
32138;SDS011;18644;48.700;9.210;2023-03-15T04:21:39;4.72;;;1.52;;
32138;SDS011;18644;48.700;9.210;2023-03-15T04:24:11;2.03;;;1.13;;
32138;SDS011;18644;48.700;9.210;2023-03-15T04:26:39;4.65;;;1.48;;
32138;SDS011;18644;48.700;9.210;2023-03-15T04:29:09;2.38;;;1.42;;
32138;SDS011;18644;48.700;9.210;2023-03-15T04:31:38;3.15;;;1.30;;
32138;SDS011;18644;48.700;9.210;2023-03-15T04:34:07;1.25;;;1.15;;
32138;SDS011;18644;48.700;9.210;2023-03-15T04:36:34;2.60;;;1.35;;
32138;SDS011;18644;48.700;9.210;2023-03-15T04:39:01;1.75;;;1.40;;
32138;SDS011;18644;48.700;9.210;2023-03-15T04:41:31;6.50;;;1.75;;
32138;SDS011;18644;48.700;9.210;2023-03-15T04:43:59;2.17;;;1.50;;
32138;SDS011;18644;48.700;9.210;2023-03-15T04:46:31;2.75;;;1.20;;
32138;SDS011;18644;48.700;9.210;2023-03-15T04:48:58;3.65;;;1.42;;
32138;SDS011;18644;48.700;9.210;2023-03-15T04:51:25;1.33;;;1.13;;
32138;SDS011;18644;48.700;9.210;2023-03-15T04:53:52;8.13;;;1.80;;
32138;SDS011;18644;48.700;9.210;2023-03-15T04:56:19;4.35;;;1.58;;
32138;SDS011;18644;48.700;9.210;2023-03-15T04:58:46;2.83;;;1.50;;
32138;SDS011;18644;48.700;9.210;2023-03-15T05:01:13;1.42;;;1.23;;
32138;SDS011;18644;48.700;9.210;2023-03-15T05:03:41;5.85;;;1.45;;
32138;SDS011;18644;48.700;9.210;2023-03-15T05:06:08;4.32;;;1.67;;
32138;SDS011;18644;48.700;9.210;2023-03-15T05:08:35;2.45;;;1.75;;
32138;SDS011;18644;48.700;9.210;2023-03-15T05:11:03;6.00;;;1.63;;
32138;SDS011;18644;48.700;9.210;2023-03-15T05:13:30;4.35;;;1.45;;
32138;SDS011;18644;48.700;9.210;2023-03-15T05:15:57;3.50;;;1.60;;
32138;SDS011;18644;48.700;9.210;2023-03-15T05:18:24;4.30;;;1.95;;
32138;SDS011;18644;48.700;9.210;2023-03-15T05:20:52;3.30;;;1.42;;
32138;SDS011;18644;48.700;9.210;2023-03-15T05:23:20;3.08;;;1.45;;
32138;SDS011;18644;48.700;9.210;2023-03-15T05:25:50;3.20;;;1.60;;
32138;SDS011;18644;48.700;9.210;2023-03-15T05:28:18;2.25;;;1.55;;
32138;SDS011;18644;48.700;9.210;2023-03-15T05:30:46;3.05;;;1.52;;
32138;SDS011;18644;48.700;9.210;2023-03-15T05:33:13;2.53;;;1.45;;
32138;SDS011;18644;48.700;9.210;2023-03-15T05:35:41;3.75;;;1.98;;
32138;SDS011;18644;48.700;9.210;2023-03-15T05:38:13;8.80;;;1.83;;
32138;SDS011;18644;48.700;9.210;2023-03-15T05:40:40;2.38;;;1.45;;
32138;SDS011;18644;48.700;9.210;2023-03-15T05:43:07;3.15;;;1.38;;
32138;SDS011;18644;48.700;9.210;2023-03-15T05:45:34;2.67;;;1.30;;
32138;SDS011;18644;48.700;9.210;2023-03-15T05:48:01;7.57;;;2.05;;
32138;SDS011;18644;48.700;9.210;2023-03-15T05:50:28;2.83;;;1.50;;
32138;SDS011;18644;48.700;9.210;2023-03-15T05:52:55;3.80;;;1.77;;
32138;SDS011;18644;48.700;9.210;2023-03-15T05:55:24;4.72;;;2.05;;
32138;SDS011;18644;48.700;9.210;2023-03-15T05:57:51;8.18;;;1.90;;
32138;SDS011;18644;48.700;9.210;2023-03-15T06:00:18;5.07;;;1.70;;
32138;SDS011;18644;48.700;9.210;2023-03-15T06:02:46;2.10;;;1.45;;
32138;SDS011;18644;48.700;9.210;2023-03-15T06:05:13;3.70;;;1.50;;
32138;SDS011;18644;48.700;9.210;2023-03-15T06:07:40;4.20;;;1.75;;
32138;SDS011;18644;48.700;9.210;2023-03-15T06:10:08;4.43;;;1.98;;
32138;SDS011;18644;48.700;9.210;2023-03-15T06:12:38;3.47;;;1.70;;
32138;SDS011;18644;48.700;9.210;2023-03-15T06:15:05;6.07;;;2.05;;
32138;SDS011;18644;48.700;9.210;2023-03-15T06:17:33;3.03;;;1.85;;
32138;SDS011;18644;48.700;9.210;2023-03-15T06:20:00;8.15;;;2.22;;
32138;SDS011;18644;48.700;9.210;2023-03-15T06:22:27;7.43;;;2.05;;
32138;SDS011;18644;48.700;9.210;2023-03-15T06:24:54;6.00;;;2.17;;
32138;SDS011;18644;48.700;9.210;2023-03-15T06:27:21;4.20;;;1.75;;
32138;SDS011;18644;48.700;9.210;2023-03-15T06:29:49;2.92;;;1.67;;
32138;SDS011;18644;48.700;9.210;2023-03-15T06:32:17;7.35;;;2.03;;
32138;SDS011;18644;48.700;9.210;2023-03-15T06:34:44;3.67;;;1.80;;
32138;SDS011;18644;48.700;9.210;2023-03-15T06:37:11;4.43;;;1.60;;
32138;SDS011;18644;48.700;9.210;2023-03-15T06:39:40;2.85;;;1.45;;
32138;SDS011;18644;48.700;9.210;2023-03-15T06:42:08;9.35;;;2.83;;
32138;SDS011;18644;48.700;9.210;2023-03-15T06:44:37;4.72;;;1.85;;
32138;SDS011;18644;48.700;9.210;2023-03-15T06:47:06;4.18;;;1.95;;
32138;SDS011;18644;48.700;9.210;2023-03-15T06:49:33;3.20;;;1.80;;
32138;SDS011;18644;48.700;9.210;2023-03-15T06:52:00;2.28;;;1.60;;
32138;SDS011;18644;48.700;9.210;2023-03-15T06:54:28;5.53;;;1.95;;
32138;SDS011;18644;48.700;9.210;2023-03-15T06:56:55;5.40;;;1.88;;
32138;SDS011;18644;48.700;9.210;2023-03-15T06:59:23;13.25;;;2.28;;
32138;SDS011;18644;48.700;9.210;2023-03-15T07:01:50;5.60;;;2.15;;
32138;SDS011;18644;48.700;9.210;2023-03-15T07:04:18;8.45;;;1.92;;
32138;SDS011;18644;48.700;9.210;2023-03-15T07:06:45;5.68;;;1.50;;
32138;SDS011;18644;48.700;9.210;2023-03-15T07:09:12;5.18;;;1.92;;
32138;SDS011;18644;48.700;9.210;2023-03-15T07:11:39;3.92;;;1.67;;
32138;SDS011;18644;48.700;9.210;2023-03-15T07:14:06;6.75;;;2.50;;
32138;SDS011;18644;48.700;9.210;2023-03-15T07:16:33;5.80;;;2.25;;
32138;SDS011;18644;48.700;9.210;2023-03-15T07:19:00;2.75;;;1.70;;
32138;SDS011;18644;48.700;9.210;2023-03-15T07:21:29;6.18;;;2.30;;
32138;SDS011;18644;48.700;9.210;2023-03-15T07:23:56;3.53;;;1.45;;
32138;SDS011;18644;48.700;9.210;2023-03-15T07:26:23;2.75;;;1.42;;
32138;SDS011;18644;48.700;9.210;2023-03-15T07:28:50;5.05;;;1.92;;
32138;SDS011;18644;48.700;9.210;2023-03-15T07:31:17;2.83;;;1.80;;
32138;SDS011;18644;48.700;9.210;2023-03-15T07:33:44;3.78;;;1.52;;
32138;SDS011;18644;48.700;9.210;2023-03-15T07:36:11;6.72;;;2.60;;
32138;SDS011;18644;48.700;9.210;2023-03-15T07:38:39;3.28;;;1.75;;
32138;SDS011;18644;48.700;9.210;2023-03-15T07:41:06;5.90;;;1.73;;
32138;SDS011;18644;48.700;9.210;2023-03-15T07:43:33;4.05;;;1.60;;
32138;SDS011;18644;48.700;9.210;2023-03-15T07:46:00;10.32;;;1.95;;
32138;SDS011;18644;48.700;9.210;2023-03-15T07:48:28;2.80;;;1.40;;
32138;SDS011;18644;48.700;9.210;2023-03-15T07:50:55;4.20;;;1.90;;
32138;SDS011;18644;48.700;9.210;2023-03-15T07:53:22;3.53;;;1.38;;
32138;SDS011;18644;48.700;9.210;2023-03-15T07:55:51;4.70;;;1.92;;
32138;SDS011;18644;48.700;9.210;2023-03-15T07:58:20;3.22;;;1.77;;
32138;SDS011;18644;48.700;9.210;2023-03-15T08:00:46;3.05;;;1.52;;
32138;SDS011;18644;48.700;9.210;2023-03-15T08:03:13;8.40;;;1.60;;
32138;SDS011;18644;48.700;9.210;2023-03-15T08:05:41;2.72;;;1.95;;
32138;SDS011;18644;48.700;9.210;2023-03-15T08:08:07;3.63;;;1.50;;
32138;SDS011;18644;48.700;9.210;2023-03-15T08:10:34;3.90;;;1.75;;
32138;SDS011;18644;48.700;9.210;2023-03-15T08:13:02;1.92;;;1.25;;
32138;SDS011;18644;48.700;9.210;2023-03-15T08:15:29;2.85;;;1.30;;
32138;SDS011;18644;48.700;9.210;2023-03-15T08:17:56;2.92;;;1.60;;
32138;SDS011;18644;48.700;9.210;2023-03-15T08:20:24;1.85;;;1.35;;
32138;SDS011;18644;48.700;9.210;2023-03-15T08:22:51;6.35;;;1.60;;
32138;SDS011;18644;48.700;9.210;2023-03-15T08:25:19;5.20;;;1.55;;
32138;SDS011;18644;48.700;9.210;2023-03-15T08:27:48;2.47;;;1.40;;
32138;SDS011;18644;48.700;9.210;2023-03-15T08:30:20;3.00;;;1.48;;
32138;SDS011;18644;48.700;9.210;2023-03-15T08:32:48;3.92;;;1.70;;
32138;SDS011;18644;48.700;9.210;2023-03-15T08:35:17;2.13;;;1.45;;
32138;SDS011;18644;48.700;9.210;2023-03-15T08:37:46;2.63;;;1.50;;
32138;SDS011;18644;48.700;9.210;2023-03-15T08:40:13;3.25;;;1.45;;
32138;SDS011;18644;48.700;9.210;2023-03-15T08:42:43;3.65;;;1.48;;
32138;SDS011;18644;48.700;9.210;2023-03-15T08:45:10;5.40;;;2.25;;
32138;SDS011;18644;48.700;9.210;2023-03-15T08:47:39;4.53;;;1.75;;
32138;SDS011;18644;48.700;9.210;2023-03-15T08:50:06;1.83;;;1.40;;
32138;SDS011;18644;48.700;9.210;2023-03-15T08:52:37;3.90;;;1.55;;
32138;SDS011;18644;48.700;9.210;2023-03-15T08:55:05;2.95;;;1.48;;
32138;SDS011;18644;48.700;9.210;2023-03-15T08:57:33;4.28;;;1.25;;
32138;SDS011;18644;48.700;9.210;2023-03-15T09:00:00;2.20;;;1.00;;
32138;SDS011;18644;48.700;9.210;2023-03-15T09:05:00;5.07;;;1.30;;
32138;SDS011;18644;48.700;9.210;2023-03-15T09:07:27;3.08;;;1.00;;
32138;SDS011;18644;48.700;9.210;2023-03-15T09:09:54;5.53;;;1.83;;
32138;SDS011;18644;48.700;9.210;2023-03-15T09:12:21;2.95;;;1.48;;
32138;SDS011;18644;48.700;9.210;2023-03-15T09:14:48;1.25;;;0.93;;
32138;SDS011;18644;48.700;9.210;2023-03-15T09:17:14;5.55;;;1.38;;
32138;SDS011;18644;48.700;9.210;2023-03-15T09:19:41;3.38;;;1.25;;
32138;SDS011;18644;48.700;9.210;2023-03-15T09:22:10;3.65;;;1.30;;
32138;SDS011;18644;48.700;9.210;2023-03-15T09:24:37;2.83;;;1.30;;
32138;SDS011;18644;48.700;9.210;2023-03-15T09:27:04;1.77;;;1.15;;
32138;SDS011;18644;48.700;9.210;2023-03-15T09:29:31;2.33;;;1.20;;
32138;SDS011;18644;48.700;9.210;2023-03-15T09:31:58;4.90;;;1.60;;
32138;SDS011;18644;48.700;9.210;2023-03-15T09:34:26;2.83;;;1.38;;
32138;SDS011;18644;48.700;9.210;2023-03-15T09:36:53;5.30;;;1.60;;
32138;SDS011;18644;48.700;9.210;2023-03-15T09:39:22;2.17;;;1.08;;
32138;SDS011;18644;48.700;9.210;2023-03-15T09:41:49;1.17;;;1.00;;
32138;SDS011;18644;48.700;9.210;2023-03-15T09:44:25;4.72;;;1.13;;
32138;SDS011;18644;48.700;9.210;2023-03-15T09:47:06;3.40;;;1.63;;
32138;SDS011;18644;48.700;9.210;2023-03-15T09:49:44;5.45;;;1.60;;
32138;SDS011;18644;48.700;9.210;2023-03-15T09:52:23;3.45;;;1.35;;
32138;SDS011;18644;48.700;9.210;2023-03-15T09:55:00;2.85;;;1.20;;
32138;SDS011;18644;48.700;9.210;2023-03-15T09:57:34;3.03;;;1.40;;
32138;SDS011;18644;48.700;9.210;2023-03-15T10:00:09;2.33;;;1.15;;
32138;SDS011;18644;48.700;9.210;2023-03-15T10:02:41;2.05;;;1.20;;
32138;SDS011;18644;48.700;9.210;2023-03-15T10:05:17;3.83;;;1.35;;
32138;SDS011;18644;48.700;9.210;2023-03-15T10:07:48;3.17;;;1.40;;
32138;SDS011;18644;48.700;9.210;2023-03-15T10:10:18;3.50;;;1.20;;
32138;SDS011;18644;48.700;9.210;2023-03-15T10:12:50;1.77;;;1.30;;
32138;SDS011;18644;48.700;9.210;2023-03-15T10:15:31;17.25;;;1.65;;
32138;SDS011;18644;48.700;9.210;2023-03-15T10:18:15;2.85;;;0.98;;
32138;SDS011;18644;48.700;9.210;2023-03-15T10:20:56;1.02;;;0.93;;
32138;SDS011;18644;48.700;9.210;2023-03-15T10:23:32;2.03;;;1.45;;
32138;SDS011;18644;48.700;9.210;2023-03-15T10:26:07;2.33;;;1.00;;
32138;SDS011;18644;48.700;9.210;2023-03-15T10:28:37;2.38;;;1.20;;
32138;SDS011;18644;48.700;9.210;2023-03-15T10:31:09;2.75;;;0.98;;
32138;SDS011;18644;48.700;9.210;2023-03-15T10:33:39;4.70;;;1.35;;
32138;SDS011;18644;48.700;9.210;2023-03-15T10:36:10;2.67;;;1.20;;
32138;SDS011;18644;48.700;9.210;2023-03-15T10:38:42;1.83;;;0.90;;
32138;SDS011;18644;48.700;9.210;2023-03-15T10:41:12;2.05;;;0.80;;
32138;SDS011;18644;48.700;9.210;2023-03-15T10:43:55;2.17;;;1.00;;
32138;SDS011;18644;48.700;9.210;2023-03-15T10:46:25;5.03;;;1.10;;
32138;SDS011;18644;48.700;9.210;2023-03-15T10:48:55;3.00;;;1.20;;
32138;SDS011;18644;48.700;9.210;2023-03-15T10:51:24;2.38;;;0.90;;
32138;SDS011;18644;48.700;9.210;2023-03-15T10:53:54;3.58;;;1.10;;
32138;SDS011;18644;48.700;9.210;2023-03-15T10:56:26;1.63;;;0.95;;
32138;SDS011;18644;48.700;9.210;2023-03-15T10:58:56;4.05;;;1.00;;
32138;SDS011;18644;48.700;9.210;2023-03-15T11:01:24;1.25;;;0.85;;
32138;SDS011;18644;48.700;9.210;2023-03-15T11:04:08;2.15;;;1.05;;
32138;SDS011;18644;48.700;9.210;2023-03-15T11:06:42;4.40;;;0.98;;
32138;SDS011;18644;48.700;9.210;2023-03-15T11:09:13;2.13;;;0.90;;
32138;SDS011;18644;48.700;9.210;2023-03-15T11:11:54;3.72;;;0.77;;
32138;SDS011;18644;48.700;9.210;2023-03-15T11:14:25;1.75;;;1.00;;
32138;SDS011;18644;48.700;9.210;2023-03-15T11:16:59;1.40;;;0.70;;
32138;SDS011;18644;48.700;9.210;2023-03-15T11:19:29;3.70;;;1.10;;
32138;SDS011;18644;48.700;9.210;2023-03-15T11:22:00;1.75;;;0.98;;
32138;SDS011;18644;48.700;9.210;2023-03-15T11:24:28;3.08;;;0.90;;
32138;SDS011;18644;48.700;9.210;2023-03-15T11:26:59;3.40;;;0.90;;
32138;SDS011;18644;48.700;9.210;2023-03-15T11:29:29;1.58;;;0.90;;
32138;SDS011;18644;48.700;9.210;2023-03-15T11:31:57;2.15;;;1.02;;
32138;SDS011;18644;48.700;9.210;2023-03-15T11:34:30;3.67;;;1.50;;
32138;SDS011;18644;48.700;9.210;2023-03-15T11:37:05;1.55;;;0.90;;
32138;SDS011;18644;48.700;9.210;2023-03-15T11:39:42;1.95;;;1.00;;
32138;SDS011;18644;48.700;9.210;2023-03-15T11:44:46;2.97;;;0.88;;
32138;SDS011;18644;48.700;9.210;2023-03-15T11:47:21;0.73;;;0.65;;
32138;SDS011;18644;48.700;9.210;2023-03-15T11:49:59;2.08;;;0.70;;
32138;SDS011;18644;48.700;9.210;2023-03-15T11:52:27;3.85;;;1.17;;
32138;SDS011;18644;48.700;9.210;2023-03-15T11:54:56;3.65;;;0.93;;
32138;SDS011;18644;48.700;9.210;2023-03-15T12:00:19;5.18;;;1.08;;
32138;SDS011;18644;48.700;9.210;2023-03-15T12:03:28;2.00;;;0.70;;
32138;SDS011;18644;48.700;9.210;2023-03-15T12:06:07;2.17;;;0.80;;
32138;SDS011;18644;48.700;9.210;2023-03-15T12:09:00;1.25;;;0.80;;
32138;SDS011;18644;48.700;9.210;2023-03-15T12:11:35;2.72;;;0.88;;
32138;SDS011;18644;48.700;9.210;2023-03-15T12:14:19;1.17;;;0.85;;
32138;SDS011;18644;48.700;9.210;2023-03-15T12:16:57;2.88;;;0.93;;
32138;SDS011;18644;48.700;9.210;2023-03-15T12:20:06;2.30;;;1.08;;
32138;SDS011;18644;48.700;9.210;2023-03-15T12:22:44;1.98;;;1.00;;
32138;SDS011;18644;48.700;9.210;2023-03-15T12:25:18;3.50;;;0.93;;
32138;SDS011;18644;48.700;9.210;2023-03-15T12:27:50;1.00;;;0.90;;
32138;SDS011;18644;48.700;9.210;2023-03-15T12:30:22;2.47;;;0.90;;
32138;SDS011;18644;48.700;9.210;2023-03-15T12:32:55;1.23;;;0.90;;
32138;SDS011;18644;48.700;9.210;2023-03-15T12:35:23;0.70;;;0.70;;
32138;SDS011;18644;48.700;9.210;2023-03-15T12:37:54;1.17;;;0.70;;
32138;SDS011;18644;48.700;9.210;2023-03-15T12:40:36;1.60;;;0.65;;
32138;SDS011;18644;48.700;9.210;2023-03-15T12:43:13;1.75;;;0.80;;
32138;SDS011;18644;48.700;9.210;2023-03-15T12:45:43;1.70;;;0.70;;
32138;SDS011;18644;48.700;9.210;2023-03-15T12:48:24;1.23;;;1.10;;
32138;SDS011;18644;48.700;9.210;2023-03-15T12:59:19;1.67;;;0.95;;
32138;SDS011;18644;48.700;9.210;2023-03-15T13:01:55;2.47;;;0.88;;
32138;SDS011;18644;48.700;9.210;2023-03-15T13:04:25;0.95;;;0.90;;
32138;SDS011;18644;48.700;9.210;2023-03-15T13:06:59;2.03;;;0.70;;
32138;SDS011;18644;48.700;9.210;2023-03-15T13:09:54;3.10;;;1.00;;
32138;SDS011;18644;48.700;9.210;2023-03-15T13:12:43;2.55;;;1.10;;
32138;SDS011;18644;48.700;9.210;2023-03-15T13:15:15;2.20;;;0.88;;
32138;SDS011;18644;48.700;9.210;2023-03-15T13:17:50;3.47;;;0.90;;
32138;SDS011;18644;48.700;9.210;2023-03-15T13:20:28;1.17;;;0.80;;
32138;SDS011;18644;48.700;9.210;2023-03-15T13:23:12;0.85;;;0.80;;
32138;SDS011;18644;48.700;9.210;2023-03-15T13:25:45;2.47;;;0.95;;
32138;SDS011;18644;48.700;9.210;2023-03-15T13:28:29;2.45;;;1.25;;
32138;SDS011;18644;48.700;9.210;2023-03-15T13:31:01;2.97;;;0.95;;
32138;SDS011;18644;48.700;9.210;2023-03-15T13:33:39;2.70;;;1.08;;
32138;SDS011;18644;48.700;9.210;2023-03-15T13:36:10;1.05;;;0.80;;
32138;SDS011;18644;48.700;9.210;2023-03-15T13:38:41;2.30;;;1.02;;
32138;SDS011;18644;48.700;9.210;2023-03-15T13:41:14;1.08;;;0.85;;
32138;SDS011;18644;48.700;9.210;2023-03-15T13:43:44;2.17;;;0.90;;
32138;SDS011;18644;48.700;9.210;2023-03-15T13:46:13;1.48;;;0.80;;
32138;SDS011;18644;48.700;9.210;2023-03-15T13:48:42;2.13;;;0.80;;
32138;SDS011;18644;48.700;9.210;2023-03-15T13:51:16;1.50;;;1.08;;
32138;SDS011;18644;48.700;9.210;2023-03-15T13:53:48;1.30;;;0.95;;
32138;SDS011;18644;48.700;9.210;2023-03-15T13:56:18;2.28;;;1.30;;
32138;SDS011;18644;48.700;9.210;2023-03-15T13:58:53;2.65;;;0.82;;
32138;SDS011;18644;48.700;9.210;2023-03-15T14:01:21;4.35;;;1.20;;
32138;SDS011;18644;48.700;9.210;2023-03-15T14:03:53;1.70;;;1.02;;
32138;SDS011;18644;48.700;9.210;2023-03-15T14:06:23;4.07;;;1.08;;
32138;SDS011;18644;48.700;9.210;2023-03-15T14:08:52;2.38;;;1.27;;
32138;SDS011;18644;48.700;9.210;2023-03-15T14:11:31;2.75;;;1.10;;
32138;SDS011;18644;48.700;9.210;2023-03-15T14:14:01;2.75;;;1.20;;
32138;SDS011;18644;48.700;9.210;2023-03-15T14:16:45;2.97;;;0.93;;
32138;SDS011;18644;48.700;9.210;2023-03-15T14:19:15;1.83;;;1.10;;
32138;SDS011;18644;48.700;9.210;2023-03-15T14:21:45;1.83;;;0.88;;
32138;SDS011;18644;48.700;9.210;2023-03-15T14:24:19;2.42;;;1.10;;
32138;SDS011;18644;48.700;9.210;2023-03-15T14:26:52;2.50;;;1.50;;
32138;SDS011;18644;48.700;9.210;2023-03-15T14:29:24;3.22;;;1.38;;
32138;SDS011;18644;48.700;9.210;2023-03-15T14:34:30;2.45;;;1.10;;
32138;SDS011;18644;48.700;9.210;2023-03-15T14:37:01;1.05;;;0.90;;
32138;SDS011;18644;48.700;9.210;2023-03-15T14:39:36;1.70;;;0.80;;
32138;SDS011;18644;48.700;9.210;2023-03-15T14:44:35;1.20;;;1.10;;
32138;SDS011;18644;48.700;9.210;2023-03-15T14:47:08;2.63;;;0.98;;
32138;SDS011;18644;48.700;9.210;2023-03-15T14:49:41;1.30;;;1.02;;
32138;SDS011;18644;48.700;9.210;2023-03-15T14:52:10;1.17;;;0.80;;
32138;SDS011;18644;48.700;9.210;2023-03-15T14:54:38;2.25;;;0.80;;
32138;SDS011;18644;48.700;9.210;2023-03-15T14:57:12;3.42;;;1.20;;
32138;SDS011;18644;48.700;9.210;2023-03-15T14:59:38;1.45;;;0.98;;
32138;SDS011;18644;48.700;9.210;2023-03-15T15:02:08;2.42;;;1.20;;
32138;SDS011;18644;48.700;9.210;2023-03-15T15:04:42;1.45;;;1.15;;
32138;SDS011;18644;48.700;9.210;2023-03-15T15:07:12;1.10;;;1.00;;
32138;SDS011;18644;48.700;9.210;2023-03-15T15:09:46;1.42;;;0.88;;
32138;SDS011;18644;48.700;9.210;2023-03-15T15:12:15;1.80;;;1.05;;
32138;SDS011;18644;48.700;9.210;2023-03-15T15:14:43;0.85;;;0.63;;
32138;SDS011;18644;48.700;9.210;2023-03-15T15:17:10;1.70;;;1.00;;
32138;SDS011;18644;48.700;9.210;2023-03-15T15:19:37;1.23;;;1.02;;
32138;SDS011;18644;48.700;9.210;2023-03-15T15:22:05;2.15;;;1.33;;
32138;SDS011;18644;48.700;9.210;2023-03-15T15:24:34;3.35;;;1.30;;
32138;SDS011;18644;48.700;9.210;2023-03-15T15:27:02;4.22;;;1.30;;